Orbital elements of FENGYUN 1C DEB
| Launched | 9 May 1999 |
| Flight ended | – |
| Launch site | Taiyuan Space Center, PRC |
| Owner | People's Republic of China |
| NORAD ID | 30649 |
| Date fetched |
Epoch osculation |
Inc. [°] |
Ecc. | RA asc node [hr] |
Arg Peri. [°] |
Mean anom [°] |
Mean motion [rev/day] |
Abs. mag |
| Date fetched |
Epoch osculation |
Inc. [°] |
Ecc. | RA asc node [hr] |
Arg Peri. [°] |
Mean anom [°] |
Mean motion [rev/day] |
Abs. mag |
| 2026 May 07 17:58 | 2026 May 05 06:03:13 | 98.8057 | 0.00512 | 15.1513 | 113.7842 | 279.5239 | 14.30821 | – |
| 2026 May 06 17:57 | 2026 May 05 06:03:13 | 98.8057 | 0.00512 | 15.1513 | 113.7842 | 279.5239 | 14.30821 | – |
| 2026 May 05 17:57 | 2026 May 05 06:03:13 | 98.8057 | 0.00512 | 15.1513 | 113.7842 | 279.5239 | 14.30821 | – |
| 2026 May 04 17:57 | 2026 Apr 30 06:50:28 | 98.8058 | 0.00515 | 14.8159 | 127.7248 | 279.5239 | 14.30821 | – |
| 2026 May 03 17:57 | 2026 Apr 30 06:50:28 | 98.8058 | 0.00515 | 14.8159 | 127.7248 | 279.5239 | 14.30821 | – |
| 2026 May 02 17:57 | 2026 Apr 30 06:50:28 | 98.8058 | 0.00515 | 14.8159 | 127.7248 | 279.5239 | 14.30821 | – |
| 2026 May 01 17:56 | 2026 Apr 30 06:50:28 | 98.8058 | 0.00515 | 14.8159 | 127.7248 | 279.5239 | 14.30821 | – |
| 2026 Apr 30 17:56 | 2026 Apr 30 06:50:28 | 98.8058 | 0.00515 | 14.8159 | 127.7248 | 279.5239 | 14.30821 | – |
| 2026 Apr 29 17:57 | 2026 Apr 24 05:00:09 | 98.8048 | 0.00517 | 14.4056 | 144.6771 | 279.5239 | 14.30821 | – |
| 2026 Apr 28 17:56 | 2026 Apr 24 05:00:09 | 98.8048 | 0.00517 | 14.4056 | 144.6771 | 279.5239 | 14.30821 | – |
| 2026 Apr 27 17:58 | 2026 Apr 24 05:00:09 | 98.8048 | 0.00517 | 14.4056 | 144.6771 | 279.5239 | 14.30821 | – |
| 2026 Apr 26 17:58 | 2026 Apr 24 05:00:09 | 98.8048 | 0.00517 | 14.4056 | 144.6771 | 279.5239 | 14.30821 | – |
| 2026 Apr 25 17:58 | 2026 Apr 24 05:00:09 | 98.8048 | 0.00517 | 14.4056 | 144.6771 | 279.5239 | 14.30821 | – |
| 2026 Apr 24 17:59 | 2026 Apr 24 05:00:09 | 98.8048 | 0.00517 | 14.4056 | 144.6771 | 279.5239 | 14.30821 | – |
| 2026 Apr 23 17:57 | 2026 Apr 19 05:41:08 | 98.8049 | 0.00516 | 14.0699 | 158.5938 | 279.5239 | 14.30821 | – |
| 2026 Apr 22 17:57 | 2026 Apr 19 05:41:08 | 98.8049 | 0.00516 | 14.0699 | 158.5938 | 279.5239 | 14.30821 | – |
| 2026 Apr 21 17:57 | 2026 Apr 19 05:41:08 | 98.8049 | 0.00516 | 14.0699 | 158.5938 | 279.5239 | 14.30821 | – |
| 2026 Apr 20 17:57 | 2026 Apr 19 05:41:08 | 98.8049 | 0.00516 | 14.0699 | 158.5938 | 279.5239 | 14.30821 | – |
| 2026 Apr 19 17:58 | 2026 Apr 19 05:41:08 | 98.8049 | 0.00516 | 14.0699 | 158.5938 | 279.5239 | 14.30821 | – |
| 2026 Apr 18 17:56 | 2026 Apr 13 05:20:11 | 98.8039 | 0.00514 | 13.6640 | 175.5128 | 279.5239 | 14.30821 | – |
| 2026 Apr 16 17:57 | 2026 Apr 13 05:20:11 | 98.8039 | 0.00514 | 13.6640 | 175.5128 | 279.5239 | 14.30821 | – |
| 2026 Apr 14 17:57 | 2026 Apr 13 05:20:11 | 98.8039 | 0.00514 | 13.6640 | 175.5128 | 279.5239 | 14.30821 | – |
| 2026 Apr 13 17:57 | 2026 Apr 13 05:20:11 | 98.8039 | 0.00514 | 13.6640 | 175.5128 | 279.5239 | 14.30821 | – |
| 2026 Apr 12 17:57 | 2026 Apr 08 06:08:50 | 98.8035 | 0.00511 | 13.3287 | 189.4406 | 279.5239 | 14.30821 | – |
| 2026 Apr 11 17:57 | 2026 Apr 08 06:08:50 | 98.8035 | 0.00511 | 13.3287 | 189.4406 | 279.5239 | 14.30821 | – |
| 2026 Apr 10 17:58 | 2026 Apr 08 06:08:50 | 98.8035 | 0.00511 | 13.3287 | 189.4406 | 279.5239 | 14.30821 | – |